sensor_id;sensor_type;location;lat;lon;timestamp;temperature;humidity
18781;DHT22;9519;51.890;8.970;2023-04-03T00:02:10;3.50;95.00
18781;DHT22;9519;51.890;8.970;2023-04-03T00:12:15;3.70;99.90
18781;DHT22;9519;51.890;8.970;2023-04-03T00:17:18;3.00;99.90
18781;DHT22;9519;51.890;8.970;2023-04-03T00:27:23;3.50;99.90
18781;DHT22;9519;51.890;8.970;2023-04-03T00:32:26;3.20;99.90
18781;DHT22;9519;51.890;8.970;2023-04-03T00:37:28;3.10;99.90
18781;DHT22;9519;51.890;8.970;2023-04-03T00:42:31;2.90;99.90
18781;DHT22;9519;51.890;8.970;2023-04-03T00:47:34;2.90;99.90
18781;DHT22;9519;51.890;8.970;2023-04-03T00:52:37;2.70;99.90
18781;DHT22;9519;51.890;8.970;2023-04-03T01:02:44;1.00;95.20
18781;DHT22;9519;51.890;8.970;2023-04-03T01:07:47;2.30;99.90
18781;DHT22;9519;51.890;8.970;2023-04-03T01:17:54;2.70;99.90
18781;DHT22;9519;51.890;8.970;2023-04-03T01:23:05;2.60;95.90
18781;DHT22;9519;51.890;8.970;2023-04-03T01:28:16;2.60;95.90
18781;DHT22;9519;51.890;8.970;2023-04-03T01:33:21;2.70;99.90
18781;DHT22;9519;51.890;8.970;2023-04-03T01:38:23;2.60;99.90
18781;DHT22;9519;51.890;8.970;2023-04-03T01:43:25;2.60;99.90
18781;DHT22;9519;51.890;8.970;2023-04-03T01:48:29;2.50;99.80
18781;DHT22;9519;51.890;8.970;2023-04-03T01:53:31;2.30;96.10
18781;DHT22;9519;51.890;8.970;2023-04-03T01:58:33;2.20;99.90
18781;DHT22;9519;51.890;8.970;2023-04-03T02:03:37;2.20;96.20
18781;DHT22;9519;51.890;8.970;2023-04-03T02:13:42;2.20;99.90
18781;DHT22;9519;51.890;8.970;2023-04-03T02:18:45;1.60;99.90
18781;DHT22;9519;51.890;8.970;2023-04-03T02:23:47;2.00;99.90
18781;DHT22;9519;51.890;8.970;2023-04-03T02:33:54;2.20;99.90
18781;DHT22;9519;51.890;8.970;2023-04-03T02:38:56;1.80;99.90
18781;DHT22;9519;51.890;8.970;2023-04-03T02:43:58;1.90;99.90
18781;DHT22;9519;51.890;8.970;2023-04-03T02:49:01;1.80;96.70
18781;DHT22;9519;51.890;8.970;2023-04-03T03:04:10;1.40;99.90
18781;DHT22;9519;51.890;8.970;2023-04-03T03:09:12;1.60;99.90
18781;DHT22;9519;51.890;8.970;2023-04-03T03:19:18;1.50;96.90
18781;DHT22;9519;51.890;8.970;2023-04-03T03:34:26;1.70;99.90
18781;DHT22;9519;51.890;8.970;2023-04-03T03:49:34;1.50;99.90
18781;DHT22;9519;51.890;8.970;2023-04-03T03:54:37;1.30;99.90
18781;DHT22;9519;51.890;8.970;2023-04-03T04:04:43;1.50;99.90
18781;DHT22;9519;51.890;8.970;2023-04-03T04:14:48;1.30;99.90
18781;DHT22;9519;51.890;8.970;2023-04-03T04:19:52;1.20;99.90
18781;DHT22;9519;51.890;8.970;2023-04-03T04:29:56;1.40;99.90
18781;DHT22;9519;51.890;8.970;2023-04-03T04:34:59;1.10;98.10
18781;DHT22;9519;51.890;8.970;2023-04-03T04:45:05;1.00;98.20
18781;DHT22;9519;51.890;8.970;2023-04-03T04:50:10;1.00;98.30
18781;DHT22;9519;51.890;8.970;2023-04-03T05:00:15;1.10;99.90
18781;DHT22;9519;51.890;8.970;2023-04-03T05:05:20;0.90;98.50
18781;DHT22;9519;51.890;8.970;2023-04-03T05:15:25;0.80;99.90
18781;DHT22;9519;51.890;8.970;2023-04-03T05:20:29;0.80;99.90
18781;DHT22;9519;51.890;8.970;2023-04-03T05:25:31;0.80;99.30
18781;DHT22;9519;51.890;8.970;2023-04-03T05:30:33;1.10;99.90
18781;DHT22;9519;51.890;8.970;2023-04-03T05:35:37;0.90;99.00
18781;DHT22;9519;51.890;8.970;2023-04-03T05:40:41;1.40;99.90
18781;DHT22;9519;51.890;8.970;2023-04-03T05:50:47;1.10;99.90
18781;DHT22;9519;51.890;8.970;2023-04-03T05:55:49;0.90;99.90
18781;DHT22;9519;51.890;8.970;2023-04-03T06:05:55;1.00;99.90
18781;DHT22;9519;51.890;8.970;2023-04-03T06:10:57;1.20;99.90
18781;DHT22;9519;51.890;8.970;2023-04-03T06:16:00;1.10;99.90
18781;DHT22;9519;51.890;8.970;2023-04-03T06:21:04;1.10;99.90
18781;DHT22;9519;51.890;8.970;2023-04-03T06:31:10;1.40;99.90
18781;DHT22;9519;51.890;8.970;2023-04-03T06:36:14;1.50;99.90
18781;DHT22;9519;51.890;8.970;2023-04-03T06:46:23;1.60;99.90
18781;DHT22;9519;51.890;8.970;2023-04-03T06:51:28;1.70;99.90
18781;DHT22;9519;51.890;8.970;2023-04-03T06:56:32;2.00;99.90
18781;DHT22;9519;51.890;8.970;2023-04-03T07:01:34;1.90;99.90
18781;DHT22;9519;51.890;8.970;2023-04-03T07:06:37;2.10;99.80
18781;DHT22;9519;51.890;8.970;2023-04-03T07:11:40;2.30;99.90
18781;DHT22;9519;51.890;8.970;2023-04-03T07:16:42;2.40;99.90
18781;DHT22;9519;51.890;8.970;2023-04-03T07:21:45;2.80;99.90
18781;DHT22;9519;51.890;8.970;2023-04-03T07:26:49;2.60;99.90
18781;DHT22;9519;51.890;8.970;2023-04-03T07:31:51;2.70;99.90
18781;DHT22;9519;51.890;8.970;2023-04-03T07:36:55;2.70;99.90
18781;DHT22;9519;51.890;8.970;2023-04-03T07:41:57;3.30;99.90
18781;DHT22;9519;51.890;8.970;2023-04-03T07:46:59;3.10;99.90
18781;DHT22;9519;51.890;8.970;2023-04-03T07:52:03;3.30;98.30
18781;DHT22;9519;51.890;8.970;2023-04-03T07:57:06;3.30;99.90
18781;DHT22;9519;51.890;8.970;2023-04-03T08:02:09;3.50;98.10
18781;DHT22;9519;51.890;8.970;2023-04-03T08:07:13;3.50;99.90
18781;DHT22;9519;51.890;8.970;2023-04-03T08:12:15;3.70;99.90
18781;DHT22;9519;51.890;8.970;2023-04-03T08:22:21;3.40;99.90
18781;DHT22;9519;51.890;8.970;2023-04-03T08:32:26;3.40;98.60
18781;DHT22;9519;51.890;8.970;2023-04-03T08:37:31;4.00;97.40
18781;DHT22;9519;51.890;8.970;2023-04-03T08:42:42;4.10;97.00
18781;DHT22;9519;51.890;8.970;2023-04-03T08:48:08;4.00;99.90
18781;DHT22;9519;51.890;8.970;2023-04-03T08:53:19;4.60;99.90
18781;DHT22;9519;51.890;8.970;2023-04-03T08:58:25;4.40;99.90
18781;DHT22;9519;51.890;8.970;2023-04-03T09:03:31;4.40;99.90
18781;DHT22;9519;51.890;8.970;2023-04-03T09:08:42;5.10;99.90
18781;DHT22;9519;51.890;8.970;2023-04-03T09:13:52;5.10;99.90
18781;DHT22;9519;51.890;8.970;2023-04-03T09:19:05;5.20;99.90
18781;DHT22;9519;51.890;8.970;2023-04-03T09:24:18;5.50;99.90
18781;DHT22;9519;51.890;8.970;2023-04-03T09:29:23;5.20;95.80
18781;DHT22;9519;51.890;8.970;2023-04-03T09:34:28;5.30;99.90
18781;DHT22;9519;51.890;8.970;2023-04-03T09:39:49;5.50;95.50
18781;DHT22;9519;51.890;8.970;2023-04-03T09:44:55;5.70;95.40
18781;DHT22;9519;51.890;8.970;2023-04-03T09:50:17;6.20;99.90
18781;DHT22;9519;51.890;8.970;2023-04-03T09:55:24;5.90;94.20
18781;DHT22;9519;51.890;8.970;2023-04-03T10:00:34;6.00;93.40
18781;DHT22;9519;51.890;8.970;2023-04-03T10:05:39;6.10;93.10
18781;DHT22;9519;51.890;8.970;2023-04-03T10:10:44;6.20;92.80
18781;DHT22;9519;51.890;8.970;2023-04-03T10:15:51;6.30;92.70
18781;DHT22;9519;51.890;8.970;2023-04-03T10:21:00;6.50;92.70
18781;DHT22;9519;51.890;8.970;2023-04-03T10:26:15;6.60;92.00
18781;DHT22;9519;51.890;8.970;2023-04-03T10:31:29;6.50;91.90
18781;DHT22;9519;51.890;8.970;2023-04-03T10:36:41;6.50;91.20
18781;DHT22;9519;51.890;8.970;2023-04-03T10:41:56;6.60;90.70
18781;DHT22;9519;51.890;8.970;2023-04-03T10:47:11;6.70;90.80
18781;DHT22;9519;51.890;8.970;2023-04-03T10:52:21;6.80;90.50
18781;DHT22;9519;51.890;8.970;2023-04-03T10:57:28;7.10;90.90
18781;DHT22;9519;51.890;8.970;2023-04-03T11:02:36;7.30;90.60
18781;DHT22;9519;51.890;8.970;2023-04-03T11:07:52;7.30;89.50
18781;DHT22;9519;51.890;8.970;2023-04-03T11:13:02;7.10;88.20
18781;DHT22;9519;51.890;8.970;2023-04-03T11:18:17;6.90;88.70
18781;DHT22;9519;51.890;8.970;2023-04-03T11:23:25;6.70;88.20
18781;DHT22;9519;51.890;8.970;2023-04-03T11:28:29;6.60;88.40
18781;DHT22;9519;51.890;8.970;2023-04-03T11:33:41;6.60;88.20
18781;DHT22;9519;51.890;8.970;2023-04-03T11:38:54;6.50;87.50
18781;DHT22;9519;51.890;8.970;2023-04-03T11:44:01;6.30;99.90
18781;DHT22;9519;51.890;8.970;2023-04-03T11:54:59;6.70;90.10
18781;DHT22;9519;51.890;8.970;2023-04-03T12:05:55;7.30;89.20
18781;DHT22;9519;51.890;8.970;2023-04-03T12:11:15;7.50;89.80
18781;DHT22;9519;51.890;8.970;2023-04-03T12:16:28;7.70;88.30
18781;DHT22;9519;51.890;8.970;2023-04-03T12:22:06;7.80;86.70
18781;DHT22;9519;51.890;8.970;2023-04-03T12:27:29;7.80;86.30
18781;DHT22;9519;51.890;8.970;2023-04-03T12:38:33;8.00;86.10
18781;DHT22;9519;51.890;8.970;2023-04-03T12:43:54;8.00;83.70
18781;DHT22;9519;51.890;8.970;2023-04-03T12:49:22;8.00;84.50
18781;DHT22;9519;51.890;8.970;2023-04-03T12:54:37;8.10;85.30
18781;DHT22;9519;51.890;8.970;2023-04-03T12:59:41;8.30;83.00
18781;DHT22;9519;51.890;8.970;2023-04-03T13:04:48;8.30;83.30
18781;DHT22;9519;51.890;8.970;2023-04-03T13:10:00;8.40;82.70
18781;DHT22;9519;51.890;8.970;2023-04-03T13:15:13;8.40;81.30
18781;DHT22;9519;51.890;8.970;2023-04-03T13:20:23;8.30;81.00
18781;DHT22;9519;51.890;8.970;2023-04-03T13:25:28;8.30;80.60
18781;DHT22;9519;51.890;8.970;2023-04-03T13:30:35;8.30;80.90
18781;DHT22;9519;51.890;8.970;2023-04-03T13:35:41;8.30;79.70
18781;DHT22;9519;51.890;8.970;2023-04-03T13:40:48;8.20;79.80
18781;DHT22;9519;51.890;8.970;2023-04-03T13:45:56;8.20;79.90
18781;DHT22;9519;51.890;8.970;2023-04-03T13:51:05;8.30;80.20
18781;DHT22;9519;51.890;8.970;2023-04-03T13:56:23;8.60;81.10
18781;DHT22;9519;51.890;8.970;2023-04-03T14:01:42;8.90;80.70
18781;DHT22;9519;51.890;8.970;2023-04-03T14:06:48;9.20;81.00
18781;DHT22;9519;51.890;8.970;2023-04-03T14:11:53;9.60;80.70
18781;DHT22;9519;51.890;8.970;2023-04-03T14:16:58;9.80;77.70
18781;DHT22;9519;51.890;8.970;2023-04-03T14:22:14;9.70;78.20
18781;DHT22;9519;51.890;8.970;2023-04-03T14:27:19;9.90;78.20
18781;DHT22;9519;51.890;8.970;2023-04-03T14:32:24;10.00;76.60
18781;DHT22;9519;51.890;8.970;2023-04-03T14:37:30;9.90;75.60
18781;DHT22;9519;51.890;8.970;2023-04-03T14:42:34;9.80;75.30
18781;DHT22;9519;51.890;8.970;2023-04-03T14:47:42;9.80;75.00
18781;DHT22;9519;51.890;8.970;2023-04-03T14:52:50;10.20;77.20
18781;DHT22;9519;51.890;8.970;2023-04-03T14:57:55;11.20;76.40
18781;DHT22;9519;51.890;8.970;2023-04-03T15:02:57;12.00;75.60
18781;DHT22;9519;51.890;8.970;2023-04-03T15:08:00;12.90;74.90
18781;DHT22;9519;51.890;8.970;2023-04-03T15:13:02;13.60;74.60
18781;DHT22;9519;51.890;8.970;2023-04-03T15:18:05;13.70;67.50
18781;DHT22;9519;51.890;8.970;2023-04-03T15:23:10;12.80;65.50
18781;DHT22;9519;51.890;8.970;2023-04-03T15:28:18;12.30;65.40
18781;DHT22;9519;51.890;8.970;2023-04-03T15:33:23;12.30;64.70
18781;DHT22;9519;51.890;8.970;2023-04-03T15:38:27;12.40;66.80
18781;DHT22;9519;51.890;8.970;2023-04-03T15:43:29;12.60;66.00
18781;DHT22;9519;51.890;8.970;2023-04-03T15:48:34;12.70;63.40
18781;DHT22;9519;51.890;8.970;2023-04-03T15:53:38;12.00;61.10
18781;DHT22;9519;51.890;8.970;2023-04-03T15:58:41;11.30;62.30
18781;DHT22;9519;51.890;8.970;2023-04-03T16:03:43;11.00;62.30
18781;DHT22;9519;51.890;8.970;2023-04-03T16:08:48;10.90;63.50
18781;DHT22;9519;51.890;8.970;2023-04-03T16:13:51;10.80;63.30
18781;DHT22;9519;51.890;8.970;2023-04-03T16:18:53;10.70;62.80
18781;DHT22;9519;51.890;8.970;2023-04-03T16:23:59;10.40;63.00
18781;DHT22;9519;51.890;8.970;2023-04-03T16:29:02;10.00;63.70
18781;DHT22;9519;51.890;8.970;2023-04-03T16:34:04;9.60;63.90
18781;DHT22;9519;51.890;8.970;2023-04-03T16:39:07;9.20;64.10
18781;DHT22;9519;51.890;8.970;2023-04-03T16:44:10;8.80;64.10
18781;DHT22;9519;51.890;8.970;2023-04-03T16:49:12;8.50;64.60
18781;DHT22;9519;51.890;8.970;2023-04-03T16:54:16;8.20;65.20
18781;DHT22;9519;51.890;8.970;2023-04-03T16:59:18;8.10;65.90
18781;DHT22;9519;51.890;8.970;2023-04-03T17:04:20;8.00;66.50
18781;DHT22;9519;51.890;8.970;2023-04-03T17:09:23;8.00;67.00
18781;DHT22;9519;51.890;8.970;2023-04-03T17:14:26;7.90;66.90
18781;DHT22;9519;51.890;8.970;2023-04-03T17:19:28;7.80;66.80
18781;DHT22;9519;51.890;8.970;2023-04-03T17:24:35;7.60;66.60
18781;DHT22;9519;51.890;8.970;2023-04-03T17:29:37;7.50;67.00
18781;DHT22;9519;51.890;8.970;2023-04-03T17:34:39;7.40;67.10
18781;DHT22;9519;51.890;8.970;2023-04-03T17:39:43;7.30;67.50
18781;DHT22;9519;51.890;8.970;2023-04-03T17:44:46;7.10;67.60
18781;DHT22;9519;51.890;8.970;2023-04-03T17:49:48;7.00;68.00
18781;DHT22;9519;51.890;8.970;2023-04-03T17:54:52;6.90;68.10
18781;DHT22;9519;51.890;8.970;2023-04-03T17:59:54;6.80;68.20
18781;DHT22;9519;51.890;8.970;2023-04-03T18:04:56;6.70;68.20
18781;DHT22;9519;51.890;8.970;2023-04-03T18:10:03;6.50;68.50
18781;DHT22;9519;51.890;8.970;2023-04-03T18:15:09;6.60;92.60
18781;DHT22;9519;51.890;8.970;2023-04-03T18:20:12;6.30;69.20
18781;DHT22;9519;51.890;8.970;2023-04-03T18:25:17;6.20;69.20
18781;DHT22;9519;51.890;8.970;2023-04-03T18:30:22;6.10;69.60
18781;DHT22;9519;51.890;8.970;2023-04-03T18:35:26;6.10;69.80
18781;DHT22;9519;51.890;8.970;2023-04-03T18:40:30;5.90;69.90
18781;DHT22;9519;51.890;8.970;2023-04-03T18:45:32;5.80;70.20
18781;DHT22;9519;51.890;8.970;2023-04-03T18:50:35;5.50;94.10
18781;DHT22;9519;51.890;8.970;2023-04-03T18:55:38;5.70;70.60
18781;DHT22;9519;51.890;8.970;2023-04-03T19:00:42;5.60;70.90
18781;DHT22;9519;51.890;8.970;2023-04-03T19:05:44;5.50;71.10
18781;DHT22;9519;51.890;8.970;2023-04-03T19:10:47;5.40;71.30
18781;DHT22;9519;51.890;8.970;2023-04-03T19:15:50;5.40;71.50
18781;DHT22;9519;51.890;8.970;2023-04-03T19:20:54;5.20;71.60
18781;DHT22;9519;51.890;8.970;2023-04-03T19:25:59;5.40;95.50
18781;DHT22;9519;51.890;8.970;2023-04-03T19:31:02;5.10;72.10
18781;DHT22;9519;51.890;8.970;2023-04-03T19:36:12;5.00;72.20
18781;DHT22;9519;51.890;8.970;2023-04-03T19:41:19;4.80;96.20
18781;DHT22;9519;51.890;8.970;2023-04-03T19:46:25;4.90;72.80
18781;DHT22;9519;51.890;8.970;2023-04-03T19:51:29;4.80;72.80
18781;DHT22;9519;51.890;8.970;2023-04-03T19:56:32;4.70;73.00
18781;DHT22;9519;51.890;8.970;2023-04-03T20:01:35;4.70;73.20
18781;DHT22;9519;51.890;8.970;2023-04-03T20:06:38;4.60;97.60
18781;DHT22;9519;51.890;8.970;2023-04-03T20:11:41;4.50;97.20
18781;DHT22;9519;51.890;8.970;2023-04-03T20:16:46;4.10;97.50
18781;DHT22;9519;51.890;8.970;2023-04-03T20:21:49;4.40;73.90
18781;DHT22;9519;51.890;8.970;2023-04-03T20:26:52;4.20;97.60
18781;DHT22;9519;51.890;8.970;2023-04-03T20:31:56;4.60;97.60
18781;DHT22;9519;51.890;8.970;2023-04-03T20:36:58;4.50;98.10
18781;DHT22;9519;51.890;8.970;2023-04-03T20:42:04;4.20;97.80
18781;DHT22;9519;51.890;8.970;2023-04-03T20:47:06;4.30;98.20
18781;DHT22;9519;51.890;8.970;2023-04-03T20:52:09;4.00;98.30
18781;DHT22;9519;51.890;8.970;2023-04-03T20:57:12;4.10;98.40
18781;DHT22;9519;51.890;8.970;2023-04-03T21:02:15;3.70;98.70
18781;DHT22;9519;51.890;8.970;2023-04-03T21:19:20;3.40;90.30
18781;DHT22;9519;51.890;8.970;2023-04-03T21:24:22;3.30;99.30
18781;DHT22;9519;51.890;8.970;2023-04-03T21:29:25;3.20;99.50
18781;DHT22;9519;51.890;8.970;2023-04-03T21:34:29;3.10;95.60
18781;DHT22;9519;51.890;8.970;2023-04-03T21:39:32;3.00;76.50
18781;DHT22;9519;51.890;8.970;2023-04-03T21:44:34;3.00;99.90
18781;DHT22;9519;51.890;8.970;2023-04-03T21:49:38;2.90;76.90
18781;DHT22;9519;51.890;8.970;2023-04-03T21:59:43;2.70;99.90
18781;DHT22;9519;51.890;8.970;2023-04-03T22:04:47;2.70;77.50
18781;DHT22;9519;51.890;8.970;2023-04-03T22:14:51;2.70;99.90
18781;DHT22;9519;51.890;8.970;2023-04-03T22:19:55;2.50;78.00
18781;DHT22;9519;51.890;8.970;2023-04-03T22:30:01;2.30;99.90
18781;DHT22;9519;51.890;8.970;2023-04-03T22:35:06;2.30;99.90
18781;DHT22;9519;51.890;8.970;2023-04-03T22:40:10;2.60;92.60
18781;DHT22;9519;51.890;8.970;2023-04-03T22:50:17;2.30;87.30
18781;DHT22;9519;51.890;8.970;2023-04-03T23:00:23;2.30;90.00
18781;DHT22;9519;51.890;8.970;2023-04-03T23:05:28;2.00;79.30
18781;DHT22;9519;51.890;8.970;2023-04-03T23:10:30;2.20;99.90
18781;DHT22;9519;51.890;8.970;2023-04-03T23:15:32;1.80;94.70
18781;DHT22;9519;51.890;8.970;2023-04-03T23:20:36;1.90;99.90
18781;DHT22;9519;51.890;8.970;2023-04-03T23:25:38;1.70;92.00
18781;DHT22;9519;51.890;8.970;2023-04-03T23:35:45;1.90;96.10
18781;DHT22;9519;51.890;8.970;2023-04-03T23:45:50;1.90;82.30
18781;DHT22;9519;51.890;8.970;2023-04-03T23:50:54;1.90;99.90
